createdAt,value
2022-12-24T00:00:37.446Z,100035.72
2022-12-24T00:03:39.583Z,100037.47
2022-12-24T00:06:42.176Z,100034.59
2022-12-24T00:09:44.213Z,100039.88
2022-12-24T00:12:46.156Z,100024.25
2022-12-24T00:15:48.810Z,100034.38
2022-12-24T00:18:50.904Z,100015.94
2022-12-24T00:21:53.131Z,100028.84
2022-12-24T00:24:55.711Z,100039.94
2022-12-24T00:27:57.864Z,100017.22
2022-12-24T00:31:00.992Z,100015.09
2022-12-24T00:34:03.396Z,100018.63
2022-12-24T00:37:06.475Z,100026.38
2022-12-24T00:40:10.256Z,100033.91
2022-12-24T00:43:12.170Z,100035.66
2022-12-24T00:46:14.221Z,100041.53
2022-12-24T00:49:16.340Z,100072.88
2022-12-24T00:52:20.933Z,100098.81
2022-12-24T00:55:23.330Z,100079.50
2022-12-24T00:58:25.336Z,100073.41
2022-12-24T01:01:29.225Z,100070.28
2022-12-24T01:04:50.324Z,100052.41
2022-12-24T01:07:54.714Z,100050.38
2022-12-24T01:10:57.789Z,100036.88
2022-12-24T01:14:00.059Z,100015.97
2022-12-24T01:17:02.103Z,100011.78
2022-12-24T01:20:07.954Z,99996.34
2022-12-24T01:23:11.033Z,99989.28
2022-12-24T01:26:13.483Z,99996.91
2022-12-24T01:29:16.121Z,99991.69
2022-12-24T01:32:18.501Z,99990.16
2022-12-24T01:35:20.993Z,99969.78
2022-12-24T01:38:23.049Z,99967.53
2022-12-24T01:41:44.620Z,99964.94
2022-12-24T01:44:52.188Z,99970.34
2022-12-24T01:47:54.241Z,99980.16
2022-12-24T01:51:08.147Z,99959.97
2022-12-24T01:54:16.230Z,99992.03
2022-12-24T01:57:18.198Z,99984.19
2022-12-24T02:00:20.916Z,99985.91
2022-12-24T02:03:23.147Z,99984.28
2022-12-24T02:06:25.501Z,99982.28
2022-12-24T02:09:28.144Z,99980.94
2022-12-24T02:12:34.397Z,99982.69
2022-12-24T02:16:00.845Z,99982.28
2022-12-24T02:19:35.107Z,99992.34
2022-12-24T02:22:55.214Z,100000.94
2022-12-24T02:26:15.821Z,99995.75
2022-12-24T02:29:37.628Z,100033.97
2022-12-24T02:32:51.710Z,100038.44
2022-12-24T02:36:34.972Z,100013.16
2022-12-24T02:39:43.741Z,100014.94
2022-12-24T02:42:53.567Z,100009.91
2022-12-24T02:46:02.945Z,100007.56
2022-12-24T02:49:05.659Z,99996.41
2022-12-24T02:52:07.714Z,99972.09
2022-12-24T02:55:14.983Z,99989.81
2022-12-24T02:58:25.031Z,99988.44
2022-12-24T03:02:04.934Z,99983.72
2022-12-24T03:05:15.890Z,100003.28
2022-12-24T03:08:21.017Z,100003.69
2022-12-24T03:11:23.530Z,100024.16
2022-12-24T03:14:27.617Z,100025.91
2022-12-24T03:17:30.696Z,100028.53
2022-12-24T03:20:37.154Z,100021.34
2022-12-24T03:23:39.614Z,100013.88
2022-12-24T03:26:41.938Z,99993.28
2022-12-24T03:29:46.136Z,99993.56
2022-12-24T03:32:48.532Z,99980.59
2022-12-24T03:35:50.532Z,99972.50
2022-12-24T03:38:52.460Z,99971.94
2022-12-24T03:41:54.504Z,99988.19
2022-12-24T03:44:57.697Z,99995.16
2022-12-24T03:47:59.740Z,99991.47
2022-12-24T03:51:04.531Z,100010.69
2022-12-24T03:54:06.699Z,100027.19
2022-12-24T03:57:08.863Z,100031.34
2022-12-24T04:00:11.363Z,100020.03
2022-12-24T04:03:15.433Z,100025.28
2022-12-24T04:06:20.602Z,100015.84
2022-12-24T04:09:22.850Z,100026.84
2022-12-24T04:12:24.980Z,100019.34
2022-12-24T04:15:27.213Z,100030.69
2022-12-24T04:18:29.834Z,100017.16
2022-12-24T04:21:31.927Z,100031.31
2022-12-24T04:24:33.967Z,100046.91
2022-12-24T04:27:36.127Z,100039.72
2022-12-24T04:30:42.006Z,100044.22
2022-12-24T04:33:46.630Z,100036.66
2022-12-24T04:36:49.022Z,100041.50
2022-12-24T04:39:51.088Z,100020.19
2022-12-24T04:42:52.972Z,100024.78
2022-12-24T04:45:55.436Z,100020.28
2022-12-24T04:48:58.481Z,100030.13
2022-12-24T04:52:00.635Z,100029.09
2022-12-24T04:55:03.189Z,100016.03
2022-12-24T04:58:05.236Z,100023.66
2022-12-24T05:01:14.334Z,100029.50
2022-12-24T05:04:16.608Z,100042.84
2022-12-24T05:07:18.671Z,100038.59
2022-12-24T05:10:20.766Z,100040.22
2022-12-24T05:13:22.772Z,100032.00
2022-12-24T05:16:25.104Z,100046.25
2022-12-24T05:19:27.477Z,100047.34
2022-12-24T05:22:48.269Z,100037.44
2022-12-24T05:26:09.250Z,100056.16
2022-12-24T05:29:12.506Z,100042.16
2022-12-24T05:32:14.539Z,100051.94
2022-12-24T05:35:16.575Z,100054.25
2022-12-24T05:38:19.244Z,100055.16
2022-12-24T05:41:22.654Z,100059.25
2022-12-24T05:44:24.677Z,100055.69
2022-12-24T05:47:28.525Z,100058.00
2022-12-24T05:50:35.468Z,100071.81
2022-12-24T05:53:38.711Z,100064.59
2022-12-24T05:56:41.022Z,100058.44
2022-12-24T05:59:43.148Z,100066.44
2022-12-24T06:02:45.341Z,100067.25
2022-12-24T06:05:47.506Z,100064.31
2022-12-24T06:08:50.720Z,100065.25
2022-12-24T06:11:52.952Z,100059.53
2022-12-24T06:14:54.823Z,100063.34
2022-12-24T06:17:57.212Z,100061.31
2022-12-24T06:21:06.280Z,100074.56
2022-12-24T06:24:08.773Z,100077.84
2022-12-24T06:27:10.695Z,100088.03
2022-12-24T06:30:13.107Z,100080.56
2022-12-24T06:33:15.728Z,100083.78
2022-12-24T06:36:24.229Z,100075.50
2022-12-24T06:39:26.084Z,100081.72
2022-12-24T06:42:27.999Z,100094.75
2022-12-24T06:45:29.963Z,100101.97
2022-12-24T06:48:31.952Z,100110.00
2022-12-24T06:51:33.984Z,100108.69
2022-12-24T06:54:36.193Z,100114.88
2022-12-24T06:57:38.073Z,100125.25
2022-12-24T07:00:42.451Z,100120.44
2022-12-24T07:03:44.513Z,100128.72
2022-12-24T07:06:46.755Z,100127.69
2022-12-24T07:09:48.902Z,100129.81
2022-12-24T07:12:50.869Z,100128.44
2022-12-24T07:16:02.921Z,100131.69
2022-12-24T07:19:06.285Z,100132.50
2022-12-24T07:22:15.024Z,100125.44
2022-12-24T07:25:19.071Z,100124.44
2022-12-24T07:28:27.585Z,100127.38
2022-12-24T07:31:30.271Z,100131.41
2022-12-24T07:34:32.340Z,100142.03
2022-12-24T07:37:35.000Z,100152.59
2022-12-24T07:40:37.169Z,100158.88
2022-12-24T07:43:39.310Z,100163.69
2022-12-24T07:46:42.110Z,100166.28
2022-12-24T07:49:44.454Z,100168.44
2022-12-24T07:52:46.296Z,100180.03
2022-12-24T07:55:48.256Z,100186.84
2022-12-24T07:58:51.531Z,100175.31
2022-12-24T08:01:55.940Z,100184.09
2022-12-24T08:04:58.470Z,100190.72
2022-12-24T08:08:01.197Z,100187.81
2022-12-24T08:11:06.574Z,100200.53
2022-12-24T08:14:08.876Z,100206.09
2022-12-24T08:17:10.751Z,100202.59
2022-12-24T08:20:17.623Z,100219.66
2022-12-24T08:23:19.758Z,100234.94
2022-12-24T08:26:22.037Z,100242.44
2022-12-24T08:29:24.192Z,100253.81
2022-12-24T08:32:26.185Z,100250.59
2022-12-24T08:35:28.643Z,100250.00
2022-12-24T08:38:33.181Z,100261.50
2022-12-24T08:41:35.984Z,100279.72
2022-12-24T08:44:37.939Z,100279.47
2022-12-24T08:47:40.345Z,100273.31
2022-12-24T08:50:43.335Z,100284.88
2022-12-24T08:53:46.447Z,100294.00
2022-12-24T08:56:48.583Z,100284.41
2022-12-24T08:59:51.164Z,100291.13
2022-12-24T09:02:53.255Z,100293.63
2022-12-24T09:05:56.533Z,100292.22
2022-12-24T09:08:58.799Z,100292.25
2022-12-24T09:12:02.052Z,100301.44
2022-12-24T09:15:08.347Z,100293.97
2022-12-24T09:18:10.723Z,100299.28
2022-12-24T09:21:15.539Z,100312.50
2022-12-24T09:24:17.486Z,100318.09
2022-12-24T09:27:19.500Z,100308.84
2022-12-24T09:30:23.236Z,100312.44
2022-12-24T09:33:26.468Z,100320.59
2022-12-24T09:36:48.416Z,100315.41
2022-12-24T09:39:50.664Z,100318.84
2022-12-24T09:42:54.399Z,100309.56
2022-12-24T09:46:05.530Z,100313.97
2022-12-24T09:49:37.607Z,100318.53
2022-12-24T09:52:44.009Z,100317.25
2022-12-24T09:55:52.236Z,100312.66
2022-12-24T09:59:05.909Z,100311.66
2022-12-24T10:02:15.191Z,100312.94
2022-12-24T10:05:24.044Z,100316.22
2022-12-24T10:08:37.358Z,100314.50
2022-12-24T10:11:51.569Z,100315.63
2022-12-24T10:15:08.791Z,100328.53
2022-12-24T10:18:27.379Z,100319.25
2022-12-24T10:21:55.962Z,100325.28
2022-12-24T10:25:14.712Z,100325.69
2022-12-24T10:28:30.012Z,100333.53
2022-12-24T10:31:35.749Z,100333.44
2022-12-24T10:34:45.200Z,100333.25
2022-12-24T10:37:49.259Z,100339.09
2022-12-24T10:40:55.036Z,100332.59
2022-12-24T10:43:59.001Z,100339.59
2022-12-24T10:47:01.270Z,100340.72
2022-12-24T10:50:16.240Z,100340.00
2022-12-24T10:53:25.347Z,100334.00
2022-12-24T10:56:27.369Z,100337.69
2022-12-24T10:59:49.817Z,100335.22
2022-12-24T11:03:26.719Z,100340.00
2022-12-24T11:06:28.885Z,100346.00
2022-12-24T11:09:36.766Z,100342.59
2022-12-24T11:13:05.688Z,100354.06
2022-12-24T11:16:30.101Z,100354.47
2022-12-24T11:19:36.178Z,100358.59
2022-12-24T11:22:38.800Z,100357.94
2022-12-24T11:25:46.478Z,100372.91
2022-12-24T11:29:16.510Z,100371.63
2022-12-24T11:32:22.961Z,100384.66
2022-12-24T11:35:26.622Z,100387.25
2022-12-24T11:38:30.717Z,100399.59
2022-12-24T11:41:37.777Z,100388.06
2022-12-24T11:44:48.354Z,100393.19
2022-12-24T11:47:50.618Z,100381.19
2022-12-24T11:50:58.592Z,100382.56
2022-12-24T11:54:24.154Z,100383.38
2022-12-24T11:57:44.004Z,100385.72
2022-12-24T12:00:48.154Z,100390.28
2022-12-24T12:04:28.221Z,100383.09
2022-12-24T12:07:38.057Z,100392.41
2022-12-24T12:10:43.125Z,100394.41
2022-12-24T12:13:46.146Z,100404.34
2022-12-24T12:17:13.190Z,100401.84
2022-12-24T12:20:34.955Z,100408.88
2022-12-24T12:24:09.151Z,100399.44
2022-12-24T12:27:37.914Z,100406.00
2022-12-24T12:30:43.637Z,100412.69
2022-12-24T12:34:07.725Z,100405.78
2022-12-24T12:37:18.411Z,100415.47
2022-12-24T12:40:23.472Z,100435.50
2022-12-24T12:43:34.976Z,100446.72
2022-12-24T12:47:18.352Z,100420.91
2022-12-24T12:50:40.844Z,100446.94
2022-12-24T12:53:59.807Z,100445.22
2022-12-24T12:57:08.776Z,100464.66
2022-12-24T13:00:18.113Z,100462.81
2022-12-24T13:03:48.412Z,100461.63
2022-12-24T13:07:20.648Z,100454.03
2022-12-24T13:10:59.642Z,100467.94
2022-12-24T13:14:23.303Z,100466.06
2022-12-24T13:17:43.455Z,100465.66
2022-12-24T13:20:50.927Z,100470.41
2022-12-24T13:24:12.942Z,100465.56
2022-12-24T13:27:28.438Z,100471.25
2022-12-24T13:30:40.072Z,100474.91
2022-12-24T13:33:43.136Z,100477.31
2022-12-24T13:37:03.303Z,100488.72
2022-12-24T13:40:10.998Z,100485.72
2022-12-24T13:43:13.293Z,100498.78
2022-12-24T13:46:58.270Z,100498.81
2022-12-24T13:50:21.174Z,100502.25
2022-12-24T13:53:34.117Z,100505.19
2022-12-24T13:56:37.287Z,100506.25
2022-12-24T13:59:40.230Z,100501.47
2022-12-24T14:03:17.267Z,100504.22
2022-12-24T14:06:27.885Z,100511.28
2022-12-24T14:09:32.639Z,100510.31
2022-12-24T14:12:50.251Z,100513.16
2022-12-24T14:15:55.338Z,100524.94
2022-12-24T14:19:03.758Z,100530.31
2022-12-24T14:22:23.342Z,100523.97
2022-12-24T14:25:25.871Z,100534.59
2022-12-24T14:28:45.831Z,100536.38
2022-12-24T14:31:56.412Z,100544.88
2022-12-24T14:35:13.897Z,100544.56
2022-12-24T14:38:37.836Z,100553.38
2022-12-24T14:41:49.257Z,100572.00
2022-12-24T14:44:54.054Z,100578.00
2022-12-24T14:48:19.267Z,100573.88
2022-12-24T14:51:44.474Z,100574.53
2022-12-24T14:54:47.757Z,100585.38
2022-12-24T14:57:49.712Z,100593.69
2022-12-24T15:00:54.248Z,100593.75
2022-12-24T15:04:06.066Z,100604.88
2022-12-24T15:07:12.151Z,100599.75
2022-12-24T15:10:39.975Z,100612.72
2022-12-24T15:13:46.168Z,100605.72
2022-12-24T15:16:55.942Z,100617.09
2022-12-24T15:19:59.329Z,100613.41
2022-12-24T15:23:01.648Z,100627.16
2022-12-24T15:26:22.470Z,100627.84
2022-12-24T15:29:30.555Z,100626.50
2022-12-24T15:32:34.469Z,100633.94
2022-12-24T15:35:55.780Z,100637.19
2022-12-24T15:39:00.899Z,100638.91
2022-12-24T15:42:15.495Z,100635.19
2022-12-24T15:45:27.248Z,100645.34
2022-12-24T15:48:31.612Z,100641.91
2022-12-24T15:51:37.840Z,100639.88
2022-12-24T15:54:52.112Z,100642.53
2022-12-24T15:57:56.262Z,100639.19
2022-12-24T16:01:13.500Z,100640.53
2022-12-24T16:04:21.644Z,100646.78
2022-12-24T16:07:26.849Z,100635.59
2022-12-24T16:10:29.134Z,100642.63
2022-12-24T16:13:36.480Z,100661.34
2022-12-24T16:16:56.560Z,100643.91
2022-12-24T16:20:04.571Z,100660.16
2022-12-24T16:23:06.686Z,100651.56
2022-12-24T16:26:09.080Z,100656.78
2022-12-24T16:29:12.898Z,100658.13
2022-12-24T16:32:33.257Z,100653.03
2022-12-24T16:35:36.669Z,100665.69
2022-12-24T16:38:58.851Z,100654.63
2022-12-24T16:42:21.822Z,100668.31
2022-12-24T16:45:23.882Z,100666.09
2022-12-24T16:48:28.445Z,100663.50
2022-12-24T16:51:30.887Z,100663.50
2022-12-24T16:54:32.973Z,100671.19
2022-12-24T16:57:35.211Z,100680.91
2022-12-24T17:00:37.447Z,100682.16
2022-12-24T17:03:40.052Z,100684.13
2022-12-24T17:06:42.738Z,100697.19
2022-12-24T17:09:45.515Z,100697.75
2022-12-24T17:12:48.424Z,100706.88
2022-12-24T17:15:53.354Z,100702.88
2022-12-24T17:18:55.556Z,100715.25
2022-12-24T17:21:57.756Z,100707.47
2022-12-24T17:24:59.981Z,100707.09
2022-12-24T17:28:02.245Z,100711.59
2022-12-24T17:31:12.675Z,100722.47
2022-12-24T17:34:15.035Z,100723.34
2022-12-24T17:37:16.979Z,100733.41
2022-12-24T17:40:19.589Z,100729.66
2022-12-24T17:43:21.812Z,100727.06
2022-12-24T17:46:24.129Z,100734.47
2022-12-24T17:49:26.805Z,100739.69
2022-12-24T17:52:29.796Z,100749.88
2022-12-24T17:55:32.049Z,100739.41
2022-12-24T17:58:34.307Z,100733.03
2022-12-24T18:01:36.515Z,100745.47
2022-12-24T18:04:38.835Z,100747.91
2022-12-24T18:07:41.032Z,100756.50
2022-12-24T18:10:43.416Z,100757.19
2022-12-24T18:13:46.489Z,100765.53
2022-12-24T18:16:49.627Z,100777.94
2022-12-24T18:19:51.907Z,100773.84
2022-12-24T18:22:54.153Z,100779.06
2022-12-24T18:26:02.473Z,100780.69
2022-12-24T18:29:06.101Z,100770.56
2022-12-24T18:32:08.741Z,100775.38
2022-12-24T18:35:11.626Z,100787.59
2022-12-24T18:38:13.547Z,100777.72
2022-12-24T18:41:19.721Z,100781.13
2022-12-24T18:44:25.870Z,100792.00
2022-12-24T18:47:28.927Z,100796.38
2022-12-24T18:50:31.004Z,100803.09
2022-12-24T18:53:33.949Z,100799.81
2022-12-24T18:56:35.999Z,100814.47
2022-12-24T18:59:39.386Z,100809.66
2022-12-24T19:02:42.217Z,100814.47
2022-12-24T19:05:44.293Z,100804.44
2022-12-24T19:08:57.159Z,100817.16
2022-12-24T19:12:00.958Z,100817.47
2022-12-24T19:15:03.187Z,100816.91
2022-12-24T19:18:05.605Z,100832.53
2022-12-24T19:21:10.332Z,100830.50
2022-12-24T19:24:14.418Z,100829.81
2022-12-24T19:27:16.505Z,100823.63
2022-12-24T19:30:19.120Z,100829.91
2022-12-24T19:33:22.608Z,100852.91
2022-12-24T19:36:29.887Z,100841.66
2022-12-24T19:39:33.580Z,100844.66
2022-12-24T19:42:36.142Z,100846.84
2022-12-24T19:45:38.659Z,100860.22
2022-12-24T19:48:42.196Z,100849.16
2022-12-24T19:51:45.170Z,100856.72
2022-12-24T19:54:47.421Z,100863.97
2022-12-24T19:57:52.411Z,100872.44
2022-12-24T20:00:55.399Z,100871.72
2022-12-24T20:03:57.720Z,100864.72
2022-12-24T20:07:00.716Z,100874.72
2022-12-24T20:10:03.989Z,100878.41
2022-12-24T20:13:07.429Z,100887.44
2022-12-24T20:16:15.798Z,100891.84
2022-12-24T20:19:18.219Z,100887.25
2022-12-24T20:22:22.767Z,100892.19
2022-12-24T20:25:25.069Z,100885.41
2022-12-24T20:28:28.454Z,100892.00
2022-12-24T20:31:32.254Z,100885.63
2022-12-24T20:34:34.959Z,100890.78
2022-12-24T20:37:45.641Z,100886.78
2022-12-24T20:40:48.237Z,100885.50
2022-12-24T20:43:50.699Z,100880.59
2022-12-24T20:46:52.679Z,100883.59
2022-12-24T20:49:55.081Z,100893.41
2022-12-24T20:52:57.299Z,100901.41
2022-12-24T20:55:59.251Z,100898.78
2022-12-24T20:59:01.780Z,100911.69
2022-12-24T21:02:04.253Z,100920.34
2022-12-24T21:05:08.279Z,100919.34
2022-12-24T21:08:14.131Z,100917.75
2022-12-24T21:11:35.053Z,100921.16
2022-12-24T21:14:37.121Z,100921.09
2022-12-24T21:17:39.030Z,100932.66
2022-12-24T21:20:42.973Z,100934.53
2022-12-24T21:23:44.866Z,100923.78
2022-12-24T21:26:46.790Z,100938.19
2022-12-24T21:29:49.041Z,100950.28
2022-12-24T21:32:51.910Z,100935.41
2022-12-24T21:35:58.917Z,100948.59
2022-12-24T21:39:00.834Z,100961.31
2022-12-24T21:42:03.190Z,100971.88
2022-12-24T21:45:06.364Z,100946.78
2022-12-24T21:48:28.477Z,100948.47
2022-12-24T21:51:31.001Z,100959.63
2022-12-24T21:54:33.307Z,100950.94
2022-12-24T21:57:53.705Z,100966.25
2022-12-24T22:00:55.706Z,100950.22
2022-12-24T22:03:57.657Z,100946.25
2022-12-24T22:07:19.772Z,100958.25
2022-12-24T22:10:49.276Z,100956.06
2022-12-24T22:13:51.090Z,100960.03
2022-12-24T22:16:53.173Z,100970.44
2022-12-24T22:19:57.168Z,100966.47
2022-12-24T22:22:59.109Z,100965.59
2022-12-24T22:26:00.961Z,100965.38
2022-12-24T22:29:06.220Z,100962.13
2022-12-24T22:32:08.024Z,100965.78
2022-12-24T22:35:10.900Z,100972.72
2022-12-24T22:38:12.989Z,100968.72
2022-12-24T22:41:15.405Z,100971.91
2022-12-24T22:44:17.464Z,100958.22
2022-12-24T22:47:23.399Z,100959.53
2022-12-24T22:50:26.522Z,100967.00
2022-12-24T22:53:28.571Z,100962.06
2022-12-24T22:56:35.637Z,100975.09
2022-12-24T22:59:43.081Z,100971.63
2022-12-24T23:02:45.329Z,100972.00
2022-12-24T23:05:47.825Z,100974.13
2022-12-24T23:08:51.820Z,100980.06
2022-12-24T23:11:53.877Z,100985.47
2022-12-24T23:14:58.632Z,100989.41
2022-12-24T23:18:00.646Z,100993.16
2022-12-24T23:21:05.986Z,100987.09
2022-12-24T23:24:09.967Z,100969.81
2022-12-24T23:27:12.188Z,100964.84
2022-12-24T23:30:14.638Z,100969.28
2022-12-24T23:33:16.584Z,100980.16
2022-12-24T23:36:19.865Z,100990.78
2022-12-24T23:39:21.912Z,100991.38
2022-12-24T23:42:24.170Z,100974.50
2022-12-24T23:45:26.325Z,100990.38
2022-12-24T23:48:28.666Z,101001.59
2022-12-24T23:51:30.858Z,100995.81
2022-12-24T23:54:33.251Z,101000.88
2022-12-24T23:57:35.362Z,100997.47
